Time;durP1;ratioP1;P1;durP2;ratioP2;P2;SDS_P1;SDS_P2;PMS_P1;PMS_P2;Temp;Humidity;BMP_temperature;BMP_pressure;BME280_temperature;BME280_humidity;BME280_pressure;Samples;Min_cycle;Max_cycle;Signal;HPM_P1;HPM_P2
2022/08/24 00:00:16;;;;;;;1.63;1.48;;;;;;;;;;4992844;28;20038;-43
2022/08/24 00:02:42;;;;;;;3.20;1.67;;;;;;;;;;4993301;28;20081;-41
2022/08/24 00:05:09;;;;;;;4.45;2.10;;;;;;;;;;4996859;28;20027;-41
2022/08/24 00:07:35;;;;;;;2.83;1.70;;;;;;;;;;4991722;28;20090;-41
2022/08/24 00:10:01;;;;;;;2.33;1.45;;;;;;;;;;4991537;28;20037;-41
2022/08/24 00:12:28;;;;;;;3.10;1.80;;;;;;;;;;4993713;28;20506;-42
2022/08/24 00:14:54;;;;;;;2.05;1.60;;;;;;;;;;4992841;28;20569;-41
2022/08/24 00:17:20;;;;;;;1.40;1.20;;;;;;;;;;4993412;28;20038;-41
2022/08/24 00:19:47;;;;;;;2.40;1.60;;;;;;;;;;4992530;28;20092;-40
2022/08/24 00:22:13;;;;;;;2.15;1.50;;;;;;;;;;4993330;28;20027;-41
2022/08/24 00:24:39;;;;;;;2.15;1.52;;;;;;;;;;4989840;28;20382;-44
2022/08/24 00:27:06;;;;;;;2.65;1.42;;;;;;;;;;4993227;28;20099;-42
2022/08/24 00:29:33;;;;;;;6.07;1.70;;;;;;;;;;4992618;28;20026;-41
2022/08/24 00:31:59;;;;;;;3.15;1.58;;;;;;;;;;4992111;28;20027;-41
2022/08/24 00:34:26;;;;;;;3.03;1.60;;;;;;;;;;4993376;28;20450;-41
2022/08/24 00:36:52;;;;;;;1.92;1.50;;;;;;;;;;4991777;28;20026;-41
2022/08/24 00:39:18;;;;;;;2.10;1.52;;;;;;;;;;4993332;28;20033;-41
2022/08/24 00:41:45;;;;;;;2.50;1.67;;;;;;;;;;4991021;28;20030;-42
2022/08/24 00:44:12;;;;;;;1.85;1.60;;;;;;;;;;4995535;28;20039;-40
2022/08/24 00:46:44;;;;;;;2.25;1.60;;;;;;;;;;4991980;28;20070;-43
2022/08/24 00:49:18;;;;;;;2.00;1.20;;;;;;;;;;4993150;28;20089;-41
2022/08/24 00:51:49;;;;;;;2.72;1.70;;;;;;;;;;4984808;28;20106;-42
2022/08/24 00:54:17;;;;;;;1.80;1.48;;;;;;;;;;4993281;28;20038;-42
2022/08/24 00:56:46;;;;;;;3.00;1.50;;;;;;;;;;4990151;28;20026;-45
2022/08/24 00:59:14;;;;;;;1.58;1.30;;;;;;;;;;4997717;28;20033;-43
2022/08/24 01:01:43;;;;;;;4.70;2.90;;;;;;;;;;4991050;28;20073;-43
2022/08/24 01:04:11;;;;;;;2.33;1.52;;;;;;;;;;4984585;28;20093;-40
2022/08/24 01:06:37;;;;;;;2.50;1.58;;;;;;;;;;4993887;28;20026;-44
2022/08/24 01:09:04;;;;;;;1.75;1.35;;;;;;;;;;4991431;28;20061;-41
2022/08/24 01:11:32;;;;;;;3.13;1.88;;;;;;;;;;4991768;28;20416;-40
2022/08/24 01:13:58;;;;;;;2.05;1.40;;;;;;;;;;4991237;28;20611;-40
2022/08/24 01:19:16;;;;;;;3.42;1.83;;;;;;;;;;4990071;28;20040;-40
2022/08/24 01:21:51;;;;;;;2.35;1.58;;;;;;;;;;4991223;28;20080;-41
2022/08/24 01:24:17;;;;;;;2.25;1.67;;;;;;;;;;4991521;28;20529;-40
2022/08/24 01:26:45;;;;;;;2.30;1.55;;;;;;;;;;4989780;28;20027;-41
2022/08/24 01:29:13;;;;;;;1.75;1.20;;;;;;;;;;4991668;28;20030;-41
2022/08/24 01:31:39;;;;;;;4.03;1.52;;;;;;;;;;4994551;28;20034;-43
2022/08/24 01:34:05;;;;;;;2.28;1.45;;;;;;;;;;4991355;28;20034;-41
2022/08/24 01:36:36;;;;;;;1.98;1.50;;;;;;;;;;4990841;28;20109;-41
2022/08/24 01:39:09;;;;;;;2.40;1.55;;;;;;;;;;4991212;28;20038;-41
2022/08/24 01:41:36;;;;;;;2.20;1.50;;;;;;;;;;4974208;28;20456;-41
2022/08/24 01:44:02;;;;;;;2.75;1.80;;;;;;;;;;4990171;28;20117;-41
2022/08/24 01:46:28;;;;;;;3.50;1.60;;;;;;;;;;4988423;28;20022;-41
2022/08/24 01:48:56;;;;;;;2.10;1.58;;;;;;;;;;4991466;28;20420;-41
2022/08/24 01:51:22;;;;;;;2.28;1.58;;;;;;;;;;4991742;28;20041;-41
2022/08/24 01:53:48;;;;;;;1.65;1.27;;;;;;;;;;4990406;28;20030;-41
2022/08/24 01:56:15;;;;;;;1.45;1.30;;;;;;;;;;4990397;28;20027;-41
2022/08/24 01:58:45;;;;;;;1.80;1.30;;;;;;;;;;4990541;28;20026;-46
2022/08/24 02:01:11;;;;;;;1.77;1.60;;;;;;;;;;4953533;28;1097699;-41
2022/08/24 02:03:37;;;;;;;2.95;1.45;;;;;;;;;;4988749;28;20106;-42
2022/08/24 02:06:04;;;;;;;2.45;1.70;;;;;;;;;;4996630;28;20030;-42
2022/08/24 02:08:31;;;;;;;3.90;1.58;;;;;;;;;;4991914;28;20047;-41
2022/08/24 02:10:57;;;;;;;2.00;1.35;;;;;;;;;;4991871;28;20483;-41
2022/08/24 02:13:23;;;;;;;2.60;1.40;;;;;;;;;;4995767;28;20050;-41
2022/08/24 02:15:49;;;;;;;2.88;1.60;;;;;;;;;;4994339;28;20026;-41
2022/08/24 02:18:15;;;;;;;3.17;1.52;;;;;;;;;;4994955;28;20101;-45
2022/08/24 02:20:41;;;;;;;1.88;1.42;;;;;;;;;;4993531;28;20495;-44
2022/08/24 02:23:07;;;;;;;2.53;1.48;;;;;;;;;;4995883;28;20045;-41
2022/08/24 02:25:34;;;;;;;2.17;1.50;;;;;;;;;;4995423;28;20026;-41
2022/08/24 02:28:00;;;;;;;3.00;1.23;;;;;;;;;;4994654;28;20037;-41
2022/08/24 02:30:26;;;;;;;3.00;1.58;;;;;;;;;;4995639;28;20069;-41
2022/08/24 02:32:52;;;;;;;2.35;1.60;;;;;;;;;;4994031;28;20026;-41
2022/08/24 02:35:19;;;;;;;2.25;1.48;;;;;;;;;;4995673;28;20073;-42
2022/08/24 02:37:45;;;;;;;3.80;1.75;;;;;;;;;;4994048;28;20030;-42
2022/08/24 02:40:11;;;;;;;2.15;1.60;;;;;;;;;;4996712;28;20026;-41
2022/08/24 02:42:37;;;;;;;2.35;1.50;;;;;;;;;;4994601;28;20028;-43
2022/08/24 02:45:04;;;;;;;2.83;1.60;;;;;;;;;;4994585;28;20530;-41
2022/08/24 02:47:30;;;;;;;1.80;1.42;;;;;;;;;;4995479;28;20027;-43
2022/08/24 02:49:56;;;;;;;2.05;1.80;;;;;;;;;;4993920;28;20379;-40
2022/08/24 02:52:22;;;;;;;2.10;1.60;;;;;;;;;;4994529;28;20027;-40
2022/08/24 02:54:49;;;;;;;3.28;1.42;;;;;;;;;;4994583;28;20030;-41
2022/08/24 02:57:15;;;;;;;1.90;1.30;;;;;;;;;;4990158;28;20061;-41
2022/08/24 02:59:41;;;;;;;2.47;1.48;;;;;;;;;;4994355;28;20035;-44
2022/08/24 03:02:07;;;;;;;2.08;1.42;;;;;;;;;;4993723;28;20050;-41
2022/08/24 03:04:33;;;;;;;3.33;1.60;;;;;;;;;;4996177;28;20062;-42
2022/08/24 03:07:02;;;;;;;3.22;1.98;;;;;;;;;;4999872;28;20034;-40
2022/08/24 03:09:28;;;;;;;2.28;1.60;;;;;;;;;;4994895;28;20026;-41
2022/08/24 03:11:55;;;;;;;2.50;1.30;;;;;;;;;;4992574;28;20475;-42
2022/08/24 03:14:21;;;;;;;2.25;1.35;;;;;;;;;;4995652;28;20062;-42
2022/08/24 03:16:47;;;;;;;2.38;1.40;;;;;;;;;;4995484;28;20050;-41
2022/08/24 03:19:14;;;;;;;2.03;1.60;;;;;;;;;;4994852;28;20058;-41
2022/08/24 03:21:40;;;;;;;1.70;1.35;;;;;;;;;;4992519;28;20034;-45
2022/08/24 03:24:07;;;;;;;2.05;1.50;;;;;;;;;;4994531;28;20114;-41
2022/08/24 03:26:33;;;;;;;1.67;1.40;;;;;;;;;;4991151;28;20551;-41
2022/08/24 03:28:59;;;;;;;3.60;1.50;;;;;;;;;;4992966;28;20030;-42
2022/08/24 03:31:25;;;;;;;3.05;1.70;;;;;;;;;;4993979;28;20027;-41
2022/08/24 03:33:51;;;;;;;2.28;1.30;;;;;;;;;;4993138;28;20054;-41
2022/08/24 03:36:17;;;;;;;2.85;1.48;;;;;;;;;;4994716;28;20141;-43
2022/08/24 03:38:43;;;;;;;4.03;1.95;;;;;;;;;;4993587;28;20031;-42
2022/08/24 03:41:10;;;;;;;3.17;1.75;;;;;;;;;;4992643;28;20033;-41
2022/08/24 03:43:47;;;;;;;1.92;1.20;;;;;;;;;;4992150;28;20141;-42
2022/08/24 03:46:26;;;;;;;1.95;1.40;;;;;;;;;;4994495;28;20364;-41
2022/08/24 03:48:54;;;;;;;1.63;1.50;;;;;;;;;;4992622;28;20375;-41
2022/08/24 03:51:22;;;;;;;3.45;1.83;;;;;;;;;;4986693;28;20085;-41
2022/08/24 03:53:48;;;;;;;2.83;1.65;;;;;;;;;;4985120;28;20117;-41
2022/08/24 03:56:14;;;;;;;2.92;1.63;;;;;;;;;;4982368;28;20098;-41
2022/08/24 03:58:40;;;;;;;2.63;1.70;;;;;;;;;;4983559;28;20498;-43
2022/08/24 04:01:06;;;;;;;2.78;1.80;;;;;;;;;;4984696;28;20051;-41
2022/08/24 04:03:36;;;;;;;2.50;1.85;;;;;;;;;;4986226;28;20057;-41
2022/08/24 04:06:04;;;;;;;1.90;1.40;;;;;;;;;;4982395;28;20130;-41
2022/08/24 04:08:30;;;;;;;1.88;1.50;;;;;;;;;;4983510;28;20555;-41
2022/08/24 04:10:56;;;;;;;2.83;1.60;;;;;;;;;;4983744;28;20065;-42
2022/08/24 04:13:22;;;;;;;2.33;1.60;;;;;;;;;;4978234;28;20113;-43
2022/08/24 04:15:50;;;;;;;2.78;1.80;;;;;;;;;;4984369;28;20496;-41
2022/08/24 04:18:16;;;;;;;2.08;1.50;;;;;;;;;;4987404;28;20060;-41
2022/08/24 04:20:42;;;;;;;2.70;1.98;;;;;;;;;;4990297;28;20476;-44
2022/08/24 04:23:10;;;;;;;2.45;1.80;;;;;;;;;;4988259;28;20361;-41
2022/08/24 04:25:43;;;;;;;2.33;1.90;;;;;;;;;;4984254;28;20026;-41
2022/08/24 04:28:10;;;;;;;4.05;1.58;;;;;;;;;;4987292;28;20041;-41
2022/08/24 04:30:39;;;;;;;2.63;1.60;;;;;;;;;;4987536;28;20101;-44
2022/08/24 04:33:05;;;;;;;3.53;1.60;;;;;;;;;;4987192;28;20041;-42
2022/08/24 04:35:32;;;;;;;2.97;1.88;;;;;;;;;;4985650;28;20362;-42
2022/08/24 04:37:58;;;;;;;1.98;1.45;;;;;;;;;;4986061;28;20030;-41
2022/08/24 04:40:24;;;;;;;2.55;1.40;;;;;;;;;;4988316;28;20030;-43
2022/08/24 04:42:50;;;;;;;3.15;1.70;;;;;;;;;;4986029;28;21270;-41
2022/08/24 04:45:16;;;;;;;2.70;1.70;;;;;;;;;;4983996;28;20037;-41
2022/08/24 04:47:44;;;;;;;2.53;1.90;;;;;;;;;;4986858;28;20053;-43
2022/08/24 04:50:10;;;;;;;3.55;1.63;;;;;;;;;;4991527;28;20129;-41
2022/08/24 04:52:36;;;;;;;2.13;1.77;;;;;;;;;;4990025;28;20379;-41
2022/08/24 04:55:02;;;;;;;2.78;1.60;;;;;;;;;;4989378;28;20031;-44
2022/08/24 04:57:28;;;;;;;2.20;1.83;;;;;;;;;;4986737;28;20041;-42
2022/08/24 04:59:58;;;;;;;1.90;1.48;;;;;;;;;;4986772;28;20038;-47
2022/08/24 05:02:24;;;;;;;2.90;1.75;;;;;;;;;;4993843;28;20450;-41
2022/08/24 05:04:54;;;;;;;3.08;2.17;;;;;;;;;;4996200;28;20430;-41
2022/08/24 05:07:20;;;;;;;2.40;1.73;;;;;;;;;;4993632;28;20027;-41
2022/08/24 05:09:46;;;;;;;6.72;2.10;;;;;;;;;;4988845;28;20080;-45
2022/08/24 05:12:12;;;;;;;3.22;1.80;;;;;;;;;;5000941;28;20400;-41
2022/08/24 05:14:38;;;;;;;2.13;1.60;;;;;;;;;;4990992;28;20026;-41
2022/08/24 05:17:04;;;;;;;4.88;1.80;;;;;;;;;;4996405;28;20030;-40
2022/08/24 05:19:30;;;;;;;5.07;2.70;;;;;;;;;;4992560;28;20049;-41
2022/08/24 05:21:56;;;;;;;8.13;2.40;;;;;;;;;;4992092;28;20030;-41
2022/08/24 05:24:22;;;;;;;2.67;1.75;;;;;;;;;;4991385;28;20546;-43
2022/08/24 05:26:48;;;;;;;3.50;2.08;;;;;;;;;;4992326;28;20096;-42
2022/08/24 05:29:14;;;;;;;5.88;1.70;;;;;;;;;;4991653;28;20022;-41
2022/08/24 05:31:42;;;;;;;2.33;1.73;;;;;;;;;;4991854;28;20022;-43
2022/08/24 05:34:08;;;;;;;4.15;2.15;;;;;;;;;;4989517;28;20039;-43
2022/08/24 05:36:37;;;;;;;4.95;2.55;;;;;;;;;;4993291;28;20041;-42
2022/08/24 05:39:04;;;;;;;2.83;1.92;;;;;;;;;;4992794;28;20034;-41
2022/08/24 05:41:30;;;;;;;4.15;2.30;;;;;;;;;;4998101;28;20034;-42
2022/08/24 05:43:56;;;;;;;5.63;2.40;;;;;;;;;;4983702;28;20483;-43
2022/08/24 05:46:22;;;;;;;3.55;2.08;;;;;;;;;;4992021;28;20105;-41
2022/08/24 05:48:48;;;;;;;5.45;1.98;;;;;;;;;;4995130;28;20097;-42
2022/08/24 05:51:14;;;;;;;4.72;2.15;;;;;;;;;;4992195;28;20110;-40
2022/08/24 05:53:40;;;;;;;5.93;2.58;;;;;;;;;;4988763;28;20444;-47
2022/08/24 05:56:09;;;;;;;7.90;2.83;;;;;;;;;;4989369;28;20030;-44
2022/08/24 05:58:36;;;;;;;6.05;2.50;;;;;;;;;;4984956;28;20037;-41
2022/08/24 06:01:06;;;;;;;7.05;2.88;;;;;;;;;;4990194;28;20627;-41
2022/08/24 06:03:32;;;;;;;3.70;2.30;;;;;;;;;;4984978;28;20035;-42
2022/08/24 06:05:58;;;;;;;4.70;2.33;;;;;;;;;;4991835;28;20030;-42
2022/08/24 06:08:24;;;;;;;3.08;2.00;;;;;;;;;;4984573;28;20018;-41
2022/08/24 06:10:50;;;;;;;5.72;2.00;;;;;;;;;;4993370;28;20030;-42
2022/08/24 06:13:16;;;;;;;4.57;1.88;;;;;;;;;;4996135;28;20092;-45
2022/08/24 06:15:43;;;;;;;6.32;2.10;;;;;;;;;;4990844;28;20022;-46
2022/08/24 06:18:09;;;;;;;3.75;2.33;;;;;;;;;;4998778;28;20093;-41
2022/08/24 06:20:39;;;;;;;5.30;2.30;;;;;;;;;;4999348;28;20066;-41
2022/08/24 06:23:05;;;;;;;5.78;2.28;;;;;;;;;;4997861;28;20085;-41
2022/08/24 06:28:16;;;;;;;3.72;2.00;;;;;;;;;;4987132;28;20049;-43
2022/08/24 06:30:42;;;;;;;3.30;2.00;;;;;;;;;;4993321;28;20097;-48
2022/08/24 06:33:08;;;;;;;7.70;2.45;;;;;;;;;;4993565;28;20455;-42
2022/08/24 06:35:35;;;;;;;3.38;1.80;;;;;;;;;;4991724;28;20073;-42
2022/08/24 06:38:01;;;;;;;4.57;2.25;;;;;;;;;;4993251;28;20022;-41
2022/08/24 06:40:27;;;;;;;4.85;2.25;;;;;;;;;;4993968;28;20033;-42
2022/08/24 06:42:53;;;;;;;3.35;2.47;;;;;;;;;;4992492;28;20054;-42
2022/08/24 06:45:20;;;;;;;4.90;2.58;;;;;;;;;;4996195;28;20036;-42
2022/08/24 06:47:46;;;;;;;2.80;2.40;;;;;;;;;;4994426;28;20019;-41
2022/08/24 06:50:13;;;;;;;5.15;2.47;;;;;;;;;;4993800;28;20415;-41
2022/08/24 06:52:39;;;;;;;4.68;2.72;;;;;;;;;;4995979;28;20054;-50
2022/08/24 06:55:05;;;;;;;5.80;2.60;;;;;;;;;;4997081;28;20057;-45
2022/08/24 06:57:31;;;;;;;4.10;2.40;;;;;;;;;;4993955;28;20117;-41
2022/08/24 06:59:57;;;;;;;4.68;2.50;;;;;;;;;;4999526;28;20030;-46
2022/08/24 07:02:24;;;;;;;6.80;2.42;;;;;;;;;;5000253;28;20030;-42
2022/08/24 07:04:50;;;;;;;3.67;2.47;;;;;;;;;;5002714;28;20033;-43
2022/08/24 07:07:16;;;;;;;3.90;2.53;;;;;;;;;;5004382;28;20034;-40
2022/08/24 07:09:42;;;;;;;3.67;2.33;;;;;;;;;;4995151;28;20085;-46
2022/08/24 07:12:08;;;;;;;2.88;2.10;;;;;;;;;;5002055;28;20090;-41
2022/08/24 07:14:35;;;;;;;2.40;2.00;;;;;;;;;;4993752;28;20035;-42
2022/08/24 07:17:01;;;;;;;3.33;2.10;;;;;;;;;;4992691;28;20597;-42
2022/08/24 07:19:27;;;;;;;4.75;2.25;;;;;;;;;;4995086;28;20022;-42
2022/08/24 07:21:57;;;;;;;4.65;2.63;;;;;;;;;;4995661;28;20085;-41
2022/08/24 07:24:23;;;;;;;5.38;2.45;;;;;;;;;;4996648;28;20073;-41
2022/08/24 07:26:49;;;;;;;4.97;2.38;;;;;;;;;;4998059;28;20464;-41
2022/08/24 07:29:15;;;;;;;5.70;2.40;;;;;;;;;;4997655;28;20030;-41
2022/08/24 07:31:42;;;;;;;3.38;2.30;;;;;;;;;;4994273;28;20027;-47
2022/08/24 07:34:10;;;;;;;5.65;2.50;;;;;;;;;;4994926;28;20110;-41
2022/08/24 07:36:39;;;;;;;5.18;2.20;;;;;;;;;;4999693;28;20027;-44
2022/08/24 07:39:05;;;;;;;4.75;2.78;;;;;;;;;;5002353;28;20475;-42
2022/08/24 07:41:31;;;;;;;3.42;2.28;;;;;;;;;;5002790;28;20071;-41
2022/08/24 07:43:58;;;;;;;3.92;2.58;;;;;;;;;;4993072;28;20034;-42
2022/08/24 07:46:24;;;;;;;4.75;2.20;;;;;;;;;;5002056;28;20198;-42
2022/08/24 07:48:50;;;;;;;6.45;2.63;;;;;;;;;;4993193;28;20563;-44
2022/08/24 07:51:18;;;;;;;5.53;3.00;;;;;;;;;;4995118;28;20023;-41
2022/08/24 07:53:45;;;;;;;8.45;2.70;;;;;;;;;;4994076;28;20454;-42
2022/08/24 07:56:11;;;;;;;3.70;2.63;;;;;;;;;;4995015;28;20396;-43
2022/08/24 07:58:38;;;;;;;5.88;2.47;;;;;;;;;;4996809;28;20022;-42
2022/08/24 08:01:04;;;;;;;4.18;2.30;;;;;;;;;;4997628;28;20104;-44
2022/08/24 08:03:32;;;;;;;7.45;2.42;;;;;;;;;;4988643;28;20479;-43
2022/08/24 08:05:59;;;;;;;2.58;2.03;;;;;;;;;;4994790;28;20030;-41
2022/08/24 08:08:26;;;;;;;4.75;2.50;;;;;;;;;;4997122;28;20049;-43
2022/08/24 08:10:52;;;;;;;3.45;2.45;;;;;;;;;;5000668;28;20023;-41
2022/08/24 08:13:18;;;;;;;5.88;1.80;;;;;;;;;;5003199;28;20025;-42
2022/08/24 08:15:44;;;;;;;3.50;2.20;;;;;;;;;;4993020;28;20029;-43
2022/08/24 08:18:11;;;;;;;4.18;1.58;;;;;;;;;;4988050;28;20379;-43
2022/08/24 08:20:38;;;;;;;4.43;1.80;;;;;;;;;;4993962;28;20480;-45
2022/08/24 08:25:51;;;;;;;2.55;1.80;;;;;;;;;;4991393;28;20025;-43
2022/08/24 08:28:17;;;;;;;2.50;1.50;;;;;;;;;;4997974;28;20108;-41
2022/08/24 08:30:44;;;;;;;3.30;1.92;;;;;;;;;;4999224;28;20391;-46
2022/08/24 08:33:11;;;;;;;1.80;1.52;;;;;;;;;;5003072;28;20064;-43
2022/08/24 08:35:37;;;;;;;2.17;1.52;;;;;;;;;;5002260;28;20108;-41
2022/08/24 08:38:03;;;;;;;1.88;1.60;;;;;;;;;;4994423;28;20214;-42
2022/08/24 08:40:44;;;;;;;2.20;1.70;;;;;;;;;;4994388;28;20022;-43
2022/08/24 08:43:31;;;;;;;3.63;1.48;;;;;;;;;;4994673;28;20042;-45
2022/08/24 08:46:16;;;;;;;2.70;2.00;;;;;;;;;;4996660;28;20038;-44
2022/08/24 08:48:51;;;;;;;2.38;1.35;;;;;;;;;;4997420;28;20029;-48
2022/08/24 08:51:28;;;;;;;1.27;1.02;;;;;;;;;;4992867;28;20118;-44
2022/08/24 08:54:03;;;;;;;2.72;1.55;;;;;;;;;;4992941;28;20034;-42
2022/08/24 08:56:45;;;;;;;1.40;1.30;;;;;;;;;;4992652;28;20030;-45
2022/08/24 08:59:10;;;;;;;;;;;;;;;;;;4995056;28;20072;-46
2022/08/24 09:01:51;;;;;;;2.00;1.50;;;;;;;;;;4995467;28;19957;-42
2022/08/24 09:04:17;;;;;;;3.30;1.73;;;;;;;;;;4996140;28;20089;-41
2022/08/24 09:07:01;;;;;;;2.80;1.33;;;;;;;;;;4993986;28;20471;-50
2022/08/24 09:09:35;;;;;;;4.97;1.83;;;;;;;;;;4992255;28;20093;-42
2022/08/24 09:12:23;;;;;;;1.92;1.33;;;;;;;;;;4995919;28;20030;-41
2022/08/24 09:15:03;;;;;;;2.83;1.48;;;;;;;;;;4994733;28;20037;-41
2022/08/24 09:17:29;;;;;;;3.53;1.92;;;;;;;;;;4997945;28;20026;-41
2022/08/24 09:20:04;;;;;;;3.30;1.40;;;;;;;;;;4996626;28;20026;-41
2022/08/24 09:22:37;;;;;;;3.92;1.90;;;;;;;;;;4998953;28;20058;-41
2022/08/24 09:25:22;;;;;;;2.53;1.63;;;;;;;;;;4984964;28;20076;-42
2022/08/24 09:28:00;;;;;;;5.32;1.70;;;;;;;;;;4999051;28;20034;-41
2022/08/24 09:30:28;;;;;;;2.13;1.50;;;;;;;;;;4991923;28;20431;-42
2022/08/24 09:32:58;;;;;;;3.40;1.65;;;;;;;;;;4992114;28;20120;-41
2022/08/24 09:35:42;;;;;;;3.08;1.67;;;;;;;;;;4993181;28;20053;-42
2022/08/24 09:38:22;;;;;;;1.63;1.45;;;;;;;;;;4993104;28;20026;-42
2022/08/24 09:41:05;;;;;;;2.08;1.67;;;;;;;;;;4994753;28;20026;-42
2022/08/24 09:43:50;;;;;;;3.00;1.50;;;;;;;;;;4995193;28;20030;-42
2022/08/24 09:46:34;;;;;;;3.35;1.58;;;;;;;;;;4998605;28;20382;-42
2022/08/24 09:49:10;;;;;;;2.05;1.65;;;;;;;;;;4993691;28;20610;-41
2022/08/24 09:51:42;;;;;;;2.83;1.25;;;;;;;;;;4995534;28;20033;-41
2022/08/24 09:54:11;;;;;;;3.33;1.48;;;;;;;;;;4992152;28;20026;-41
2022/08/24 09:56:44;;;;;;;6.65;1.95;;;;;;;;;;4993466;28;20101;-42
2022/08/24 09:59:13;;;;;;;2.58;1.27;;;;;;;;;;4993494;28;20026;-43
2022/08/24 10:01:43;;;;;;;3.58;1.25;;;;;;;;;;4995222;28;20046;-41
2022/08/24 10:04:10;;;;;;;1.50;1.10;;;;;;;;;;4993530;28;20038;-42
2022/08/24 10:06:35;;;;;;;2.72;1.40;;;;;;;;;;4997345;28;20026;-44
2022/08/24 10:09:20;;;;;;;1.80;1.10;;;;;;;;;;4999469;28;20029;-45
2022/08/24 10:11:52;;;;;;;2.08;1.17;;;;;;;;;;4992803;28;20481;-42
2022/08/24 10:14:21;;;;;;;2.08;1.42;;;;;;;;;;4989349;28;20038;-42
2022/08/24 10:16:53;;;;;;;1.13;1.02;;;;;;;;;;4997450;28;20036;-42
2022/08/24 10:19:38;;;;;;;2.67;1.30;;;;;;;;;;5001758;28;20026;-42
2022/08/24 10:22:22;;;;;;;1.75;1.33;;;;;;;;;;4976415;28;20054;-41
2022/08/24 10:25:07;;;;;;;1.85;1.38;;;;;;;;;;4989949;28;20062;-42
2022/08/24 10:27:39;;;;;;;2.38;1.52;;;;;;;;;;4993251;28;20085;-42
2022/08/24 10:30:18;;;;;;;3.55;1.52;;;;;;;;;;4992264;28;20037;-41
2022/08/24 10:32:53;;;;;;;1.50;1.13;;;;;;;;;;4992591;28;20038;-48
2022/08/24 10:35:29;;;;;;;2.38;1.20;;;;;;;;;;4998356;28;21788;-42
2022/08/24 10:41:13;;;;;;;1.88;1.10;;;;;;;;;;4991024;28;20126;-42
2022/08/24 10:43:45;;;;;;;1.73;1.48;;;;;;;;;;4995411;28;20034;-44
2022/08/24 10:46:11;;;;;;;2.85;1.20;;;;;;;;;;4995512;28;20030;-44
2022/08/24 10:48:37;;;;;;;1.70;1.20;;;;;;;;;;4996002;28;20022;-45
2022/08/24 10:51:03;;;;;;;2.13;1.40;;;;;;;;;;4994830;28;20019;-48
2022/08/24 10:53:32;;;;;;;1.75;1.10;;;;;;;;;;4995283;28;20030;-46
2022/08/24 10:56:10;;;;;;;1.58;1.20;;;;;;;;;;4994330;28;20484;-42
2022/08/24 10:58:42;;;;;;;2.10;1.20;;;;;;;;;;4997496;28;20019;-41
2022/08/24 11:01:29;;;;;;;2.47;1.10;;;;;;;;;;4991420;28;20053;-44
2022/08/24 11:03:55;;;;;;;2.63;1.27;;;;;;;;;;4990099;28;20037;-44
2022/08/24 11:06:22;;;;;;;3.38;1.20;;;;;;;;;;5002822;28;20057;-43
2022/08/24 11:08:52;;;;;;;1.13;0.98;;;;;;;;;;4999377;28;20027;-44
2022/08/24 11:11:26;;;;;;;1.58;1.10;;;;;;;;;;5000805;28;20030;-45
2022/08/24 11:13:59;;;;;;;1.60;1.20;;;;;;;;;;4996154;28;20391;-42
2022/08/24 11:16:26;;;;;;;1.25;1.13;;;;;;;;;;5004268;28;20109;-44
2022/08/24 11:18:53;;;;;;;1.85;1.30;;;;;;;;;;5002111;28;20033;-45
2022/08/24 11:21:40;;;;;;;2.92;1.50;;;;;;;;;;5002290;28;20050;-46
2022/08/24 11:24:18;;;;;;;1.52;1.17;;;;;;;;;;4994794;28;20057;-42
2022/08/24 11:26:58;;;;;;;1.70;1.17;;;;;;;;;;4994353;28;20022;-46
2022/08/24 11:29:47;;;;;;;1.20;1.00;;;;;;;;;;4992412;28;20030;-42
2022/08/24 11:32:25;;;;;;;2.20;1.48;;;;;;;;;;4984252;28;20294;-44
2022/08/24 11:34:51;;;;;;;2.70;1.10;;;;;;;;;;4995346;28;20038;-43
2022/08/24 11:37:21;;;;;;;1.33;1.20;;;;;;;;;;4996008;28;20857;-43
2022/08/24 11:39:48;;;;;;;1.40;1.30;;;;;;;;;;4996785;28;20026;-45
2022/08/24 11:42:17;;;;;;;1.50;1.00;;;;;;;;;;5003773;28;20076;-42
2022/08/24 11:44:46;;;;;;;3.67;2.75;;;;;;;;;;4986458;28;20122;-45
2022/08/24 11:47:15;;;;;;;2.28;1.15;;;;;;;;;;4991510;28;20029;-45
2022/08/24 11:49:44;;;;;;;1.45;1.35;;;;;;;;;;4993720;28;20467;-47
2022/08/24 11:52:19;;;;;;;1.20;0.93;;;;;;;;;;4996401;28;20029;-43
2022/08/24 11:54:45;;;;;;;1.27;1.10;;;;;;;;;;4995570;28;20041;-45
2022/08/24 11:57:14;;;;;;;1.45;1.20;;;;;;;;;;4996887;28;20026;-46
2022/08/24 12:00:17;;;;;;;1.92;1.10;;;;;;;;;;4997179;28;20387;-45
2022/08/24 12:03:06;;;;;;;2.55;1.55;;;;;;;;;;4932547;29;20051;-45
2022/08/24 12:05:51;;;;;;;1.75;1.20;;;;;;;;;;4958380;28;20380;-42
2022/08/24 12:08:36;;;;;;;1.40;0.88;;;;;;;;;;4994937;28;20381;-44
2022/08/24 12:11:04;;;;;;;1.25;1.05;;;;;;;;;;4992870;28;20041;-45
2022/08/24 12:13:30;;;;;;;3.58;1.00;;;;;;;;;;5000243;28;20034;-42
2022/08/24 12:15:56;;;;;;;1.13;0.82;;;;;;;;;;5000495;28;20037;-42
2022/08/24 12:18:25;;;;;;;1.52;1.10;;;;;;;;;;4980566;28;20030;-45
2022/08/24 12:20:52;;;;;;;1.33;1.02;;;;;;;;;;4993093;28;20022;-47
2022/08/24 12:23:18;;;;;;;1.17;1.00;;;;;;;;;;4992072;28;20058;-43
2022/08/24 12:26:02;;;;;;;1.00;0.90;;;;;;;;;;4991061;28;20057;-48
2022/08/24 12:28:39;;;;;;;1.40;1.00;;;;;;;;;;4993224;28;20416;-43
2022/08/24 12:31:23;;;;;;;2.33;1.38;;;;;;;;;;4998957;28;20034;-44
2022/08/24 12:33:53;;;;;;;1.20;0.90;;;;;;;;;;4998923;28;20116;-43
2022/08/24 12:36:30;;;;;;;2.08;1.10;;;;;;;;;;4998692;28;20056;-45
2022/08/24 12:39:22;;;;;;;1.20;0.90;;;;;;;;;;4992854;28;20101;-42
2022/08/24 12:41:54;;;;;;;1.58;1.08;;;;;;;;;;4988875;28;20117;-45
2022/08/24 12:44:22;;;;;;;1.40;1.00;;;;;;;;;;4994166;28;20034;-44
2022/08/24 12:46:53;;;;;;;1.27;1.02;;;;;;;;;;4993161;28;20096;-43
2022/08/24 12:49:22;;;;;;;2.78;0.90;;;;;;;;;;4994409;28;20018;-43
2022/08/24 12:52:00;;;;;;;2.25;0.90;;;;;;;;;;4995426;28;20102;-44
2022/08/24 12:54:39;;;;;;;1.13;1.02;;;;;;;;;;4984244;28;20042;-43
2022/08/24 12:57:05;;;;;;;1.85;1.30;;;;;;;;;;4995368;28;20042;-42
2022/08/24 12:59:43;;;;;;;1.13;1.00;;;;;;;;;;4996320;28;20023;-44
2022/08/24 13:02:18;;;;;;;1.80;1.10;;;;;;;;;;4994803;28;20046;-45
2022/08/24 13:04:44;;;;;;;1.92;0.85;;;;;;;;;;4992467;28;20040;-48
2022/08/24 13:07:19;;;;;;;2.15;1.13;;;;;;;;;;5002698;28;20030;-42
2022/08/24 13:09:45;;;;;;;0.93;0.82;;;;;;;;;;4998392;28;20037;-48
2022/08/24 13:12:29;;;;;;;1.52;1.00;;;;;;;;;;5002167;28;20113;-42
2022/08/24 13:15:14;;;;;;;1.85;1.00;;;;;;;;;;4998849;28;20034;-43
2022/08/24 13:17:41;;;;;;;1.02;0.80;;;;;;;;;;4998037;28;20080;-43
2022/08/24 13:20:26;;;;;;;1.50;1.17;;;;;;;;;;4991183;28;20026;-45
2022/08/24 13:23:06;;;;;;;1.95;1.10;;;;;;;;;;4992347;28;20114;-42
2022/08/24 13:25:50;;;;;;;0.80;0.80;;;;;;;;;;4991729;28;20026;-42
2022/08/24 13:28:19;;;;;;;1.50;0.90;;;;;;;;;;4992209;28;20023;-44
2022/08/24 13:30:58;;;;;;;1.35;0.90;;;;;;;;;;4994910;28;20029;-48
2022/08/24 13:33:29;;;;;;;1.20;1.00;;;;;;;;;;4995469;28;20029;-43
2022/08/24 13:36:00;;;;;;;0.80;0.80;;;;;;;;;;4995995;28;20022;-42
2022/08/24 13:38:35;;;;;;;1.40;1.05;;;;;;;;;;4996909;28;20030;-43
2022/08/24 13:41:05;;;;;;;1.10;1.00;;;;;;;;;;4991669;28;20030;-43
2022/08/24 13:43:40;;;;;;;0.82;0.82;;;;;;;;;;4993486;28;20022;-44
2022/08/24 13:46:24;;;;;;;1.15;0.95;;;;;;;;;;4991403;28;20065;-46
2022/08/24 13:49:23;;;;;;;1.20;0.98;;;;;;;;;;4993485;28;20022;-42
2022/08/24 13:51:56;;;;;;;1.20;0.80;;;;;;;;;;4941855;28;20364;-42
2022/08/24 13:54:22;;;;;;;1.10;0.80;;;;;;;;;;4995999;28;20398;-42
2022/08/24 13:57:02;;;;;;;1.27;0.95;;;;;;;;;;4994659;28;20034;-42
2022/08/24 13:59:37;;;;;;;1.40;1.10;;;;;;;;;;4996943;28;20030;-45
2022/08/24 14:02:03;;;;;;;1.20;0.90;;;;;;;;;;4997016;28;20136;-41
2022/08/24 14:04:35;;;;;;;1.55;0.90;;;;;;;;;;4997010;28;20172;-47
2022/08/24 14:07:10;;;;;;;1.95;1.17;;;;;;;;;;4987697;28;20133;-42
2022/08/24 14:09:54;;;;;;;2.15;0.90;;;;;;;;;;5003758;28;20072;-43
2022/08/24 14:12:30;;;;;;;1.00;0.90;;;;;;;;;;4989482;28;20030;-42
2022/08/24 14:15:08;;;;;;;1.90;1.02;;;;;;;;;;4995352;28;20026;-42
2022/08/24 14:17:52;;;;;;;1.05;0.95;;;;;;;;;;4996948;28;20026;-42
2022/08/24 14:20:21;;;;;;;2.75;1.25;;;;;;;;;;4991140;28;20026;-42
2022/08/24 14:22:56;;;;;;;2.00;1.20;;;;;;;;;;4991331;28;20023;-42
2022/08/24 14:25:25;;;;;;;2.17;1.02;;;;;;;;;;4995563;28;20107;-42
2022/08/24 14:27:54;;;;;;;2.95;1.30;;;;;;;;;;4994641;28;20113;-44
2022/08/24 14:30:22;;;;;;;0.77;0.73;;;;;;;;;;4995798;28;20033;-44
2022/08/24 14:32:48;;;;;;;1.10;0.93;;;;;;;;;;4995076;28;20023;-43
2022/08/24 14:35:14;;;;;;;1.25;0.95;;;;;;;;;;4995246;28;20065;-42
2022/08/24 14:37:49;;;;;;;1.65;1.00;;;;;;;;;;4995775;28;20014;-42
2022/08/24 14:40:16;;;;;;;0.80;0.80;;;;;;;;;;4990250;28;20041;-44
2022/08/24 14:42:57;;;;;;;2.58;1.55;;;;;;;;;;4995189;28;20026;-49
2022/08/24 14:45:26;;;;;;;1.13;0.88;;;;;;;;;;4995534;28;20117;-44
2022/08/24 14:47:59;;;;;;;1.23;1.00;;;;;;;;;;4987157;28;20085;-45
2022/08/24 14:50:44;;;;;;;1.35;0.98;;;;;;;;;;4995140;28;20030;-41
2022/08/24 14:53:28;;;;;;;2.58;0.93;;;;;;;;;;4994914;28;20040;-42
2022/08/24 14:56:16;;;;;;;2.00;1.00;;;;;;;;;;4994161;28;20067;-42
2022/08/24 14:59:01;;;;;;;2.42;1.00;;;;;;;;;;4990173;28;20026;-50
2022/08/24 15:01:50;;;;;;;1.33;1.10;;;;;;;;;;4994660;28;20050;-48
2022/08/24 15:04:35;;;;;;;1.10;1.00;;;;;;;;;;4995500;28;20058;-45
2022/08/24 15:07:19;;;;;;;1.00;0.90;;;;;;;;;;4986915;28;20732;-47
2022/08/24 15:09:46;;;;;;;1.20;1.08;;;;;;;;;;4994324;28;20489;-46
2022/08/24 15:12:19;;;;;;;1.05;0.80;;;;;;;;;;4994921;28;20133;-41